Terminal Aerodrome Forecast
Issued by NWS El Paso, TX

Home | Current Version | Previous Version | Text Only | Print | Product List | Glossary On
Versions: 1 2 3 4 5 6 7 8 9 10 11 12 13 14 15 16 17
000
FTUS44 KEPZ 231100
TAFELP
TAF
KELP 231120Z 2312/2412 10003KT P6SM FEW030 FEW090 SCT130
     FM231700 15008KT P6SM VCTS FEW030 SCT050CB SCT100
     FM240000 13008KT P6SM SCT050 SCT100 SCT200
     FM240600 08005KT P6SM FEW080 SCT120=

USA.gov is the U.S. government's official web portal to all federal, state and local government web resources and services.